Time;durP1;ratioP1;P1;durP2;ratioP2;P2;SDS_P1;SDS_P2;PMS_P1;PMS_P2;Temp;Humidity;BMP_temperature;BMP_pressure;BME280_temperature;BME280_humidity;BME280_pressure;Samples;Min_cycle;Max_cycle;Signal;HPM_P1;HPM_P2
2023/03/23 00:02:00;;;;;;;3.73;2.70;;;14.00;97.50;;;;;;5075120;28;20453;-57
2023/03/23 00:04:29;;;;;;;2.80;2.43;;;14.00;97.60;;;;;;5075151;28;20471;-57
2023/03/23 00:06:56;;;;;;;4.53;2.60;;;14.00;97.50;;;;;;5074926;28;20449;-57
2023/03/23 00:09:24;;;;;;;6.53;2.77;;;14.10;97.50;;;;;;5075088;28;20440;-57
2023/03/23 00:12:04;;;;;;;8.53;2.63;;;14.10;97.50;;;;;;5074947;28;20488;-57
2023/03/23 00:14:40;;;;;;;4.53;2.27;;;14.10;97.50;;;;;;5074950;28;20433;-57
2023/03/23 00:17:09;;;;;;;2.40;2.20;;;14.10;97.50;;;;;;5074886;28;20449;-57
2023/03/23 00:19:45;;;;;;;3.37;2.40;;;14.00;97.40;;;;;;5074771;28;20449;-57
2023/03/23 00:22:14;;;;;;;2.60;2.40;;;14.10;97.50;;;;;;5074755;28;20425;-57
2023/03/23 00:24:41;;;;;;;4.07;2.10;;;14.10;97.40;;;;;;5074668;28;20452;-57
2023/03/23 00:27:12;;;;;;;3.10;2.43;;;14.10;97.30;;;;;;5074726;28;20448;-57
2023/03/23 00:29:39;;;;;;;2.70;2.00;;;14.10;97.30;;;;;;5074648;28;20451;-57
2023/03/23 00:32:06;;;;;;;2.80;2.57;;;14.10;97.20;;;;;;5074375;28;20508;-58
2023/03/23 00:34:33;;;;;;;3.23;1.90;;;14.10;97.20;;;;;;5074516;28;20825;-57
2023/03/23 00:37:00;;;;;;;2.60;2.30;;;14.10;97.10;;;;;;5074334;28;20837;-57
2023/03/23 00:39:29;;;;;;;3.53;2.67;;;14.10;97.20;;;;;;5074074;28;20453;-57
2023/03/23 00:42:00;;;;;;;2.80;2.60;;;14.10;97.10;;;;;;5074036;28;20818;-57
2023/03/23 00:44:28;;;;;;;3.50;2.33;;;14.00;97.10;;;;;;5074230;28;20498;-57
2023/03/23 00:46:56;;;;;;;4.53;2.87;;;14.10;97.20;;;;;;5073949;28;20942;-57
2023/03/23 00:49:25;;;;;;;3.63;2.50;;;14.10;96.90;;;;;;5073963;28;20548;-57
2023/03/23 00:51:52;;;;;;;4.57;2.30;;;14.10;97.10;;;;;;5074131;28;20516;-57
2023/03/23 00:54:19;;;;;;;2.93;2.73;;;14.10;97.10;;;;;;5073954;28;20460;-57
2023/03/23 00:56:46;;;;;;;3.53;2.53;;;14.10;97.10;;;;;;5074230;28;20452;-57
2023/03/23 00:59:13;;;;;;;4.30;2.30;;;14.10;97.10;;;;;;5074169;28;20460;-57
2023/03/23 01:01:41;;;;;;;2.57;2.30;;;14.10;97.00;;;;;;5074030;28;20460;-57
2023/03/23 01:04:08;;;;;;;5.70;2.40;;;14.10;97.10;;;;;;5073818;28;20469;-57
2023/03/23 01:06:38;;;;;;;3.50;2.30;;;14.10;97.20;;;;;;5073892;28;20540;-57
2023/03/23 01:09:06;;;;;;;2.77;2.57;;;14.10;97.30;;;;;;5074449;28;20437;-57
2023/03/23 01:11:33;;;;;;;3.23;2.27;;;14.10;97.30;;;;;;5073766;28;20523;-57
2023/03/23 01:14:01;;;;;;;3.50;2.00;;;14.20;97.40;;;;;;5073695;28;20475;-57
2023/03/23 01:16:28;;;;;;;3.00;2.27;;;14.10;97.40;;;;;;5073732;28;20445;-57
2023/03/23 01:18:56;;;;;;;6.90;2.70;;;14.20;97.40;;;;;;5073716;28;20453;-57
2023/03/23 01:21:24;;;;;;;2.30;2.10;;;14.20;97.40;;;;;;5073702;28;20444;-57
2023/03/23 01:23:51;;;;;;;8.47;2.50;;;14.10;97.50;;;;;;5073635;28;20535;-57
2023/03/23 01:26:21;;;;;;;2.83;2.37;;;14.20;97.80;;;;;;5073616;28;20453;-57
2023/03/23 01:28:48;;;;;;;3.23;2.70;;;14.20;97.90;;;;;;5073391;28;20460;-55
2023/03/23 01:31:17;;;;;;;3.03;2.70;;;14.10;98.50;;;;;;5073357;28;20451;-56
2023/03/23 01:33:44;;;;;;;4.20;2.80;;;14.10;99.20;;;;;;5073205;28;20488;-56
2023/03/23 01:36:14;;;;;;;2.90;2.60;;;14.10;99.80;;;;;;5073505;28;20452;-56
2023/03/23 01:38:43;;;;;;;4.20;3.43;;;14.00;99.90;;;;;;5073166;28;20452;-56
2023/03/23 01:41:10;;;;;;;4.30;3.13;;;13.90;99.90;;;;;;5073655;28;20453;-56
2023/03/23 01:43:37;;;;;;;3.20;2.87;;;13.80;99.90;;;;;;5074217;28;20527;-56
2023/03/23 01:46:04;;;;;;;6.33;3.10;;;13.80;99.90;;;;;;5073507;28;20457;-57
2023/03/23 01:48:35;;;;;;;4.77;3.00;;;13.70;99.90;;;;;;5073047;28;20475;-57
2023/03/23 01:51:06;;;;;;;9.53;3.20;;;13.60;99.90;;;;;;5073437;28;20429;-56
2023/03/23 01:53:39;;;;;;;5.17;3.53;;;13.50;99.90;;;;;;5073280;28;20484;-56
2023/03/23 01:56:07;;;;;;;5.17;2.73;;;13.50;99.90;;;;;;5074230;28;20490;-56
2023/03/23 01:58:37;;;;;;;5.10;3.87;;;13.50;99.90;;;;;;5073154;28;20510;-56
2023/03/23 02:01:07;;;;;;;5.50;3.40;;;13.40;99.90;;;;;;5073448;28;20444;-57
2023/03/23 02:03:35;;;;;;;4.30;3.60;;;13.40;99.90;;;;;;5072944;28;20895;-57
2023/03/23 02:06:03;;;;;;;4.13;2.77;;;13.40;99.90;;;;;;5073068;28;20444;-56
2023/03/23 02:08:32;;;;;;;3.17;2.97;;;13.40;99.90;;;;;;5073227;28;20477;-57
2023/03/23 02:11:01;;;;;;;3.33;2.83;;;13.40;99.90;;;;;;5073203;28;20445;-57
2023/03/23 02:13:28;;;;;;;3.10;2.80;;;13.40;99.90;;;;;;5073065;28;20518;-57
2023/03/23 02:16:04;;;;;;;4.40;3.03;;;13.40;99.90;;;;;;5073154;28;20471;-57
2023/03/23 02:18:48;;;;;;;2.53;2.33;;;13.40;99.90;;;;;;5073152;28;20479;-57
2023/03/23 02:21:36;;;;;;;3.03;2.67;;;13.40;99.90;;;;;;5073174;28;20508;-57
2023/03/23 02:24:35;;;;;;;4.83;2.70;;;13.30;99.90;;;;;;5072744;28;20456;-57
2023/03/23 02:27:08;;;;;;;2.90;2.70;;;13.30;99.90;;;;;;5070253;28;20487;-57
2023/03/23 02:30:02;;;;;;;2.47;2.20;;;13.30;99.90;;;;;;5073073;28;20439;-57
2023/03/23 02:32:48;;;;;;;4.07;2.80;;;13.40;99.90;;;;;;5072821;28;20495;-57
2023/03/23 02:35:20;;;;;;;2.37;2.17;;;13.40;99.90;;;;;;5072607;28;20844;-57
2023/03/23 02:37:51;;;;;;;2.67;2.47;;;13.40;99.90;;;;;;5072786;28;20445;-57
2023/03/23 02:40:21;;;;;;;4.43;2.90;;;13.50;99.90;;;;;;5072937;28;20428;-57
2023/03/23 02:42:51;;;;;;;2.83;2.20;;;13.50;99.90;;;;;;5073020;28;20594;-57
2023/03/23 02:45:20;;;;;;;2.27;2.07;;;13.50;99.90;;;;;;5073037;28;20429;-57
2023/03/23 02:47:49;;;;;;;2.87;2.67;;;13.50;99.90;;;;;;5072549;28;20800;-57
2023/03/23 02:50:21;;;;;;;3.10;2.43;;;13.50;99.90;;;;;;5072888;28;20445;-57
2023/03/23 02:52:50;;;;;;;4.83;3.00;;;13.50;99.90;;;;;;5071933;28;20492;-58
2023/03/23 02:55:18;;;;;;;2.30;2.17;;;13.50;99.90;;;;;;5052720;28;20445;-57
2023/03/23 02:57:46;;;;;;;3.03;2.73;;;13.50;99.90;;;;;;5052719;28;20445;-56
2023/03/23 03:00:16;;;;;;;3.10;2.17;;;13.40;99.90;;;;;;5054810;28;20954;-57
2023/03/23 03:02:44;;;;;;;6.90;2.37;;;13.40;99.90;;;;;;5056197;28;20548;-57
2023/03/23 03:05:20;;;;;;;3.67;2.60;;;13.40;99.90;;;;;;5056304;28;20441;-57
2023/03/23 03:08:02;;;;;;;3.43;2.60;;;13.40;99.90;;;;;;5056377;28;20434;-57
2023/03/23 03:10:33;;;;;;;2.80;2.13;;;13.40;99.90;;;;;;5056391;28;20425;-57
2023/03/23 03:13:06;;;;;;;2.87;2.50;;;13.30;99.90;;;;;;5056198;28;20489;-56
2023/03/23 03:15:37;;;;;;;3.17;2.30;;;13.40;99.90;;;;;;5056111;28;20434;-56
2023/03/23 03:18:11;;;;;;;5.50;2.23;;;13.40;99.90;;;;;;5056683;28;20441;-56
2023/03/23 03:20:42;;;;;;;2.33;1.80;;;13.50;99.90;;;;;;5056054;28;20487;-56
2023/03/23 03:23:12;;;;;;;1.97;1.87;;;13.50;99.90;;;;;;5055987;28;20473;-56
2023/03/23 03:25:42;;;;;;;2.30;1.93;;;13.50;99.90;;;;;;5055904;28;20450;-56
2023/03/23 03:28:10;;;;;;;10.87;2.00;;;13.50;99.90;;;;;;5055836;28;20464;-56
2023/03/23 03:30:39;;;;;;;2.60;2.33;;;13.50;99.90;;;;;;5055793;28;20449;-56
2023/03/23 03:33:06;;;;;;;3.70;1.90;;;13.50;99.90;;;;;;5055820;28;20576;-56
2023/03/23 03:35:37;;;;;;;3.17;1.87;;;13.50;99.90;;;;;;5055723;28;20445;-56
2023/03/23 03:38:07;;;;;;;1.70;1.60;;;13.50;99.90;;;;;;5055404;28;20433;-55
2023/03/23 03:40:35;;;;;;;2.00;1.80;;;13.50;99.90;;;;;;5055708;28;20532;-56
2023/03/23 03:43:03;;;;;;;2.30;1.90;;;13.50;99.90;;;;;;5055870;28;20468;-57
2023/03/23 03:45:30;;;;;;;3.50;2.13;;;13.60;99.90;;;;;;5055710;28;20499;-57
2023/03/23 03:47:56;;;;;;;4.27;1.80;;;13.50;99.90;;;;;;5055640;28;20453;-57
2023/03/23 03:50:24;;;;;;;2.00;1.80;;;13.50;99.90;;;;;;5055624;28;20448;-57
2023/03/23 03:52:51;;;;;;;2.13;1.93;;;13.50;99.90;;;;;;5055494;28;20489;-57
2023/03/23 03:55:18;;;;;;;2.80;1.90;;;13.50;99.90;;;;;;5055649;28;20449;-56
2023/03/23 03:57:46;;;;;;;2.30;1.90;;;13.50;99.90;;;;;;5055512;28;20454;-56
2023/03/23 04:00:16;;;;;;;5.40;2.23;;;13.50;99.90;;;;;;5055411;28;20818;-57
2023/03/23 04:02:43;;;;;;;4.93;1.90;;;13.50;99.90;;;;;;5055821;28;20458;-57
2023/03/23 04:05:11;;;;;;;2.50;2.10;;;13.50;99.90;;;;;;5054946;28;20453;-56
2023/03/23 04:07:39;;;;;;;2.33;2.13;;;13.60;99.90;;;;;;5055476;28;20496;-56
2023/03/23 04:10:07;;;;;;;2.07;1.90;;;13.60;99.90;;;;;;5056089;28;20450;-56
2023/03/23 04:12:35;;;;;;;2.17;1.80;;;13.60;99.90;;;;;;5054618;28;20501;-57
2023/03/23 04:15:03;;;;;;;2.97;1.80;;;13.60;99.90;;;;;;5054953;28;20454;-56
2023/03/23 04:17:30;;;;;;;2.10;1.90;;;13.60;99.90;;;;;;5055100;28;20449;-56
2023/03/23 04:19:58;;;;;;;2.50;2.00;;;13.60;99.90;;;;;;5054915;28;20520;-56
2023/03/23 04:22:29;;;;;;;2.63;2.30;;;13.60;99.90;;;;;;5054683;28;20476;-56
2023/03/23 04:24:58;;;;;;;2.40;2.20;;;13.50;99.90;;;;;;5054513;28;20436;-56
2023/03/23 04:27:27;;;;;;;1.90;1.80;;;13.50;99.90;;;;;;5054443;28;20454;-56
2023/03/23 04:29:54;;;;;;;2.90;2.00;;;13.50;99.90;;;;;;5054301;28;20947;-56
2023/03/23 04:32:24;;;;;;;2.70;2.00;;;13.60;99.90;;;;;;5054489;28;20437;-56
2023/03/23 04:34:51;;;;;;;2.70;2.50;;;13.60;99.90;;;;;;5054445;28;20527;-57
2023/03/23 04:37:18;;;;;;;2.97;2.63;;;13.60;99.90;;;;;;5054578;28;20499;-56
2023/03/23 04:39:45;;;;;;;2.97;2.17;;;13.60;99.90;;;;;;5054691;28;20461;-56
2023/03/23 04:42:13;;;;;;;5.10;2.50;;;13.60;99.90;;;;;;5054604;28;20485;-56
2023/03/23 04:44:42;;;;;;;4.20;2.40;;;13.60;99.90;;;;;;5054766;28;20484;-56
2023/03/23 04:47:09;;;;;;;2.87;2.67;;;13.60;99.90;;;;;;5054430;28;20449;-56
2023/03/23 04:49:37;;;;;;;3.03;2.77;;;13.60;99.90;;;;;;5054283;28;20453;-56
2023/03/23 04:52:04;;;;;;;2.77;2.50;;;13.60;99.90;;;;;;5054368;28;20446;-56
2023/03/23 04:54:30;;;;;;;2.43;2.20;;;13.60;99.90;;;;;;5054291;28;20496;-56
2023/03/23 04:56:58;;;;;;;3.90;2.40;;;13.60;99.90;;;;;;5054100;28;20524;-56
2023/03/23 04:59:27;;;;;;;4.73;2.70;;;13.60;99.90;;;;;;5054236;28;20477;-56
2023/03/23 05:01:55;;;;;;;3.60;2.40;;;13.60;99.90;;;;;;5054131;28;20445;-56
2023/03/23 05:04:22;;;;;;;3.77;2.33;;;13.60;99.90;;;;;;5053926;28;20469;-56
2023/03/23 05:06:50;;;;;;;2.93;2.53;;;13.60;99.90;;;;;;5053865;28;20825;-56
2023/03/23 05:09:17;;;;;;;4.23;2.63;;;13.60;99.90;;;;;;5053974;28;20457;-56
2023/03/23 05:11:43;;;;;;;2.20;2.00;;;13.60;99.90;;;;;;5054441;28;20457;-56
2023/03/23 05:14:10;;;;;;;6.30;2.83;;;13.60;99.90;;;;;;5053334;28;20987;-56
2023/03/23 05:16:37;;;;;;;3.10;2.70;;;13.60;99.90;;;;;;5053832;28;20457;-56
2023/03/23 05:19:04;;;;;;;4.37;2.83;;;13.50;99.90;;;;;;5053450;28;20940;-56
2023/03/23 05:21:31;;;;;;;3.00;2.70;;;13.60;99.90;;;;;;5053252;28;20816;-56
2023/03/23 05:24:00;;;;;;;7.70;4.00;;;13.60;99.90;;;;;;5053286;28;20971;-56
2023/03/23 05:26:29;;;;;;;3.30;2.57;;;13.60;99.90;;;;;;5053489;28;20453;-56
2023/03/23 05:28:56;;;;;;;2.93;2.73;;;13.60;99.90;;;;;;5053644;28;20488;-56
2023/03/23 05:31:24;;;;;;;2.80;2.60;;;13.60;99.90;;;;;;5053687;28;20449;-56
2023/03/23 05:33:50;;;;;;;2.77;2.57;;;13.60;99.90;;;;;;5053511;28;20485;-56
2023/03/23 05:36:17;;;;;;;3.07;2.17;;;13.60;99.90;;;;;;5053523;28;20449;-56
2023/03/23 05:38:45;;;;;;;2.83;2.20;;;13.50;99.90;;;;;;5053263;28;20473;-56
2023/03/23 05:41:14;;;;;;;5.30;2.20;;;13.50;99.90;;;;;;5054243;28;20456;-56
2023/03/23 05:43:41;;;;;;;2.93;2.67;;;13.50;99.80;;;;;;5053026;28;20967;-56
2023/03/23 05:46:09;;;;;;;3.13;2.67;;;13.40;99.90;;;;;;5053347;28;20449;-56
2023/03/23 05:48:36;;;;;;;4.00;2.90;;;13.40;99.90;;;;;;5053288;28;20476;-56
2023/03/23 05:51:03;;;;;;;3.67;3.07;;;13.50;99.80;;;;;;5052999;28;20830;-56
2023/03/23 05:53:30;;;;;;;3.90;2.60;;;13.50;99.70;;;;;;5052806;28;20508;-56
2023/03/23 05:56:00;;;;;;;2.53;2.13;;;13.50;99.60;;;;;;5053200;28;20449;-56
2023/03/23 05:58:28;;;;;;;3.33;2.43;;;13.50;99.60;;;;;;5052926;28;20484;-56
2023/03/23 06:00:55;;;;;;;7.53;4.50;;;13.50;99.60;;;;;;5053257;28;20525;-56
2023/03/23 06:03:22;;;;;;;3.60;2.57;;;13.50;99.60;;;;;;5052998;28;20458;-56
2023/03/23 06:05:50;;;;;;;3.60;2.53;;;13.50;99.40;;;;;;5052813;28;20866;-56
2023/03/23 06:08:16;;;;;;;4.80;2.57;;;13.50;99.30;;;;;;5053063;28;20489;-56
2023/03/23 06:10:43;;;;;;;5.63;2.43;;;13.50;99.20;;;;;;5052831;28;21027;-56
2023/03/23 06:13:10;;;;;;;5.83;2.50;;;13.50;99.10;;;;;;5052960;28;20461;-56
2023/03/23 06:15:38;;;;;;;2.77;2.00;;;13.50;99.10;;;;;;5052929;28;20943;-56
2023/03/23 06:18:05;;;;;;;2.30;1.80;;;13.50;99.10;;;;;;5053180;28;20507;-56
2023/03/23 06:20:32;;;;;;;5.27;2.30;;;13.60;99.00;;;;;;5053112;28;20500;-56
2023/03/23 06:22:59;;;;;;;2.30;1.70;;;13.60;98.90;;;;;;5052931;28;20469;-56
2023/03/23 06:25:26;;;;;;;5.90;3.03;;;13.60;98.90;;;;;;5052653;28;20484;-56
2023/03/23 06:27:53;;;;;;;3.60;2.63;;;13.60;98.70;;;;;;5052938;28;20450;-56
2023/03/23 06:30:20;;;;;;;3.97;2.50;;;13.60;98.50;;;;;;5052746;28;20848;-56
2023/03/23 06:32:48;;;;;;;3.50;2.23;;;13.70;98.60;;;;;;5052693;28;21008;-56
2023/03/23 06:35:16;;;;;;;6.13;2.30;;;13.70;98.50;;;;;;5056570;28;20481;-56
2023/03/23 06:37:43;;;;;;;3.10;2.03;;;13.80;98.20;;;;;;5056513;28;20460;-56
2023/03/23 06:40:10;;;;;;;4.57;1.93;;;13.80;98.00;;;;;;5056278;28;20453;-56
2023/03/23 06:42:38;;;;;;;5.40;1.90;;;13.80;98.00;;;;;;5056316;28;20968;-56
2023/03/23 06:45:05;;;;;;;4.30;2.10;;;13.80;98.00;;;;;;5056648;28;20453;-56
2023/03/23 06:47:32;;;;;;;3.53;1.63;;;13.80;97.50;;;;;;5056574;28;20445;-56
2023/03/23 06:50:00;;;;;;;2.97;1.80;;;13.90;97.80;;;;;;5056610;28;20452;-56
2023/03/23 06:52:27;;;;;;;4.80;1.80;;;13.90;97.70;;;;;;5056404;28;20466;-56
2023/03/23 06:54:54;;;;;;;2.33;1.60;;;13.90;97.70;;;;;;5056447;28;20485;-56
2023/03/23 06:57:21;;;;;;;3.90;1.90;;;13.90;97.80;;;;;;5056220;28;20445;-56
2023/03/23 06:59:48;;;;;;;12.30;2.73;;;14.00;97.70;;;;;;5056031;28;20880;-56
2023/03/23 07:02:15;;;;;;;3.80;1.87;;;14.00;97.60;;;;;;5056245;28;20445;-57
2023/03/23 07:04:42;;;;;;;3.53;1.90;;;14.00;97.60;;;;;;5056393;28;20449;-56
2023/03/23 07:07:14;;;;;;;3.93;1.90;;;14.00;97.60;;;;;;5056290;28;20450;-56
2023/03/23 07:09:41;;;;;;;3.23;2.07;;;14.00;97.60;;;;;;5056261;28;20799;-56
2023/03/23 07:12:08;;;;;;;3.27;1.83;;;14.00;97.30;;;;;;5056164;28;20441;-57
2023/03/23 07:14:35;;;;;;;4.70;1.87;;;14.10;97.50;;;;;;5056020;28;20477;-56
2023/03/23 07:17:01;;;;;;;3.93;2.07;;;14.10;97.40;;;;;;5056940;28;20496;-56
2023/03/23 07:19:28;;;;;;;2.60;1.67;;;14.20;97.30;;;;;;5055749;28;20460;-56
2023/03/23 07:21:56;;;;;;;2.70;1.53;;;14.20;97.20;;;;;;5055890;28;20445;-56
2023/03/23 07:24:26;;;;;;;2.77;1.80;;;14.20;96.80;;;;;;5055622;28;20629;-56
2023/03/23 07:26:52;;;;;;;2.20;2.00;;;14.20;96.70;;;;;;5055847;28;20826;-56
2023/03/23 07:29:19;;;;;;;3.90;2.20;;;14.30;96.50;;;;;;5055788;28;20553;-56
2023/03/23 07:31:46;;;;;;;3.03;1.63;;;14.30;96.00;;;;;;5055881;28;20492;-57
2023/03/23 07:34:13;;;;;;;3.10;1.50;;;14.30;96.20;;;;;;5055450;28;20959;-57
2023/03/23 07:36:40;;;;;;;2.80;1.70;;;14.30;96.20;;;;;;5055916;28;20458;-56
2023/03/23 07:39:06;;;;;;;2.17;1.07;;;14.40;96.10;;;;;;5055629;28;20472;-56
2023/03/23 07:41:35;;;;;;;3.90;1.70;;;14.30;95.50;;;;;;5055980;28;20453;-56
2023/03/23 07:44:02;;;;;;;9.40;2.80;;;14.40;95.30;;;;;;5055730;28;20474;-56
2023/03/23 07:46:28;;;;;;;2.23;1.77;;;14.40;95.10;;;;;;5054618;28;20944;-56
2023/03/23 07:48:56;;;;;;;4.23;1.40;;;14.40;95.30;;;;;;5055487;28;20877;-56
2023/03/23 07:51:23;;;;;;;3.67;1.50;;;14.50;95.40;;;;;;5055618;28;20810;-56
2023/03/23 07:53:50;;;;;;;2.10;1.57;;;14.50;94.90;;;;;;5055370;28;20472;-56
2023/03/23 07:56:19;;;;;;;4.60;1.60;;;14.50;94.80;;;;;;5055261;28;20454;-56
2023/03/23 07:58:47;;;;;;;4.10;1.70;;;14.50;94.90;;;;;;5055113;28;20446;-56
2023/03/23 08:01:15;;;;;;;3.73;1.73;;;14.50;94.60;;;;;;5055345;28;20825;-56
2023/03/23 08:03:42;;;;;;;5.70;1.50;;;14.60;94.50;;;;;;5055267;28;20465;-57
2023/03/23 08:06:09;;;;;;;4.60;1.80;;;14.60;94.40;;;;;;5055046;28;20944;-56
2023/03/23 08:08:36;;;;;;;8.63;2.00;;;14.60;94.40;;;;;;5055119;28;20495;-56
2023/03/23 08:11:04;;;;;;;6.20;2.13;;;14.70;94.40;;;;;;5055134;28;20520;-56
2023/03/23 08:13:30;;;;;;;4.70;1.47;;;14.70;94.00;;;;;;5054926;28;20982;-56
2023/03/23 08:15:58;;;;;;;5.73;2.20;;;14.80;94.10;;;;;;5054918;28;20481;-57
2023/03/23 08:18:26;;;;;;;3.70;1.77;;;14.80;93.90;;;;;;5054769;28;20445;-56
2023/03/23 08:20:53;;;;;;;5.77;1.90;;;14.80;93.70;;;;;;5054981;28;20453;-56
2023/03/23 08:23:21;;;;;;;6.33;1.63;;;14.80;93.60;;;;;;5054936;28;20523;-56
2023/03/23 08:25:48;;;;;;;4.40;1.87;;;14.80;93.40;;;;;;5054561;28;20950;-56
2023/03/23 08:28:14;;;;;;;5.23;1.70;;;14.90;93.20;;;;;;5054890;28;20528;-56
2023/03/23 08:30:42;;;;;;;5.70;1.83;;;14.90;93.60;;;;;;5054814;28;20532;-56
2023/03/23 08:33:11;;;;;;;4.60;1.70;;;14.90;93.40;;;;;;5054584;28;20476;-57
2023/03/23 08:35:38;;;;;;;3.90;2.20;;;15.00;93.20;;;;;;5054548;28;20488;-57
2023/03/23 08:38:05;;;;;;;3.63;1.70;;;15.00;93.10;;;;;;5054297;28;20492;-57
2023/03/23 08:40:33;;;;;;;9.80;2.37;;;15.10;93.10;;;;;;5055195;28;20434;-56
2023/03/23 08:43:00;;;;;;;2.83;1.57;;;15.20;93.10;;;;;;5054247;28;20497;-57
2023/03/23 08:45:27;;;;;;;9.00;2.07;;;15.20;92.50;;;;;;5054399;28;20453;-56
2023/03/23 08:47:55;;;;;;;4.80;2.20;;;15.10;92.20;;;;;;5054509;28;20489;-56
2023/03/23 08:50:26;;;;;;;4.43;2.13;;;15.10;92.30;;;;;;5054479;28;20528;-56
2023/03/23 08:52:54;;;;;;;7.73;1.93;;;15.20;92.40;;;;;;5053870;28;20471;-57
2023/03/23 08:55:22;;;;;;;4.83;2.00;;;15.20;92.90;;;;;;5054264;28;20535;-56
2023/03/23 08:57:49;;;;;;;9.70;1.70;;;15.20;92.30;;;;;;5052949;28;20935;-56
2023/03/23 09:00:19;;;;;;;6.30;1.90;;;15.10;92.30;;;;;;5054178;28;20457;-56
2023/03/23 09:02:48;;;;;;;6.07;2.30;;;15.20;92.60;;;;;;5054349;28;20466;-56
2023/03/23 09:05:15;;;;;;;7.03;1.93;;;15.20;92.50;;;;;;5053873;28;20507;-56
2023/03/23 09:07:47;;;;;;;14.03;2.43;;;15.20;92.40;;;;;;5054107;28;20445;-56
2023/03/23 09:10:15;;;;;;;9.73;1.80;;;15.20;92.50;;;;;;5053972;28;20440;-56
2023/03/23 09:12:43;;;;;;;7.53;1.77;;;15.20;92.30;;;;;;5053751;28;20469;-57
2023/03/23 09:15:12;;;;;;;4.83;1.90;;;15.30;92.50;;;;;;5053613;28;21013;-56
2023/03/23 09:17:42;;;;;;;6.87;1.83;;;15.40;92.30;;;;;;5053834;28;20456;-57
2023/03/23 09:20:11;;;;;;;6.40;1.40;;;15.40;91.60;;;;;;5053809;28;20453;-57
2023/03/23 09:22:39;;;;;;;7.27;1.70;;;15.50;92.00;;;;;;5053711;28;20481;-57
2023/03/23 09:25:10;;;;;;;11.77;2.30;;;15.40;91.20;;;;;;5053741;28;20454;-56
2023/03/23 09:27:38;;;;;;;6.60;1.90;;;15.30;91.40;;;;;;5053738;28;20426;-57
2023/03/23 09:30:06;;;;;;;10.80;1.90;;;15.30;91.50;;;;;;5053659;28;20912;-57
2023/03/23 09:32:34;;;;;;;13.13;1.93;;;15.30;91.30;;;;;;5053537;28;20827;-57
2023/03/23 09:35:01;;;;;;;8.00;1.80;;;15.20;91.20;;;;;;5053038;28;20865;-57
2023/03/23 09:37:28;;;;;;;9.13;2.87;;;15.10;91.30;;;;;;5053577;28;20481;-57
2023/03/23 09:39:55;;;;;;;2.40;1.50;;;15.00;91.70;;;;;;5053312;28;20841;-57
2023/03/23 09:42:38;;;;;;;5.53;2.20;;;15.00;92.10;;;;;;5053444;28;20557;-57
2023/03/23 09:45:14;;;;;;;6.67;1.60;;;14.80;92.40;;;;;;5053133;28;20434;-57
2023/03/23 09:47:49;;;;;;;8.57;1.97;;;14.80;92.70;;;;;;5053081;28;20817;-57
2023/03/23 09:50:19;;;;;;;10.77;2.43;;;14.70;92.80;;;;;;5054041;28;20440;-57
2023/03/23 09:52:50;;;;;;;4.80;1.40;;;14.80;93.20;;;;;;5053306;28;20465;-57
2023/03/23 09:55:19;;;;;;;6.57;2.07;;;14.90;93.40;;;;;;5053269;28;20556;-57
2023/03/23 09:57:53;;;;;;;5.60;1.90;;;14.90;92.90;;;;;;5053373;28;20450;-57
2023/03/23 10:00:25;;;;;;;1.57;0.70;;;14.80;93.10;;;;;;5053473;28;20433;-57
2023/03/23 10:03:00;;;;;;;1.60;0.63;;;14.60;94.90;;;;;;5053390;28;20841;-56
2023/03/23 10:05:32;;;;;;;2.90;0.63;;;14.30;97.00;;;;;;5053372;28;20418;-56
2023/03/23 10:08:00;;;;;;;0.73;0.60;;;14.00;98.50;;;;;;5054051;28;20434;-55
2023/03/23 10:10:35;;;;;;;2.63;0.83;;;13.70;99.90;;;;;;5057666;28;20540;-55
2023/03/23 10:13:10;;;;;;;2.07;0.60;;;13.50;99.90;;;;;;5057358;28;20564;-56
2023/03/23 10:15:40;;;;;;;0.97;0.87;;;13.30;99.90;;;;;;5057505;28;20472;-56
2023/03/23 10:18:14;;;;;;;0.70;0.70;;;13.10;99.90;;;;;;5057371;28;20434;-56
2023/03/23 10:20:45;;;;;;;2.90;0.70;;;13.10;99.90;;;;;;5056938;28;20534;-56
2023/03/23 10:23:16;;;;;;;2.53;1.00;;;13.10;99.90;;;;;;5056768;28;21036;-56
2023/03/23 10:25:47;;;;;;;1.83;1.20;;;13.00;99.90;;;;;;5056705;28;20935;-56
2023/03/23 10:28:19;;;;;;;1.17;0.97;;;13.10;99.90;;;;;;5057164;28;20444;-56
2023/03/23 10:30:49;;;;;;;1.83;0.90;;;13.20;99.90;;;;;;5057255;28;20457;-56
2023/03/23 10:33:20;;;;;;;1.40;1.30;;;13.30;99.90;;;;;;5057227;28;20492;-56
2023/03/23 10:35:53;;;;;;;1.73;1.10;;;13.40;99.90;;;;;;5057576;28;20552;-56
2023/03/23 10:38:27;;;;;;;2.23;1.37;;;13.40;99.90;;;;;;5056805;28;20993;-55
2023/03/23 10:40:59;;;;;;;1.80;1.20;;;13.50;99.90;;;;;;5057018;28;20495;-55
2023/03/23 10:43:27;;;;;;;1.03;0.80;;;13.50;99.90;;;;;;5056826;28;20472;-55
2023/03/23 10:45:58;;;;;;;2.03;1.30;;;13.60;99.90;;;;;;5056524;28;20521;-55
2023/03/23 10:48:30;;;;;;;1.33;1.07;;;13.50;99.90;;;;;;5056758;28;20437;-57
2023/03/23 10:51:01;;;;;;;2.13;0.97;;;13.40;99.90;;;;;;5056839;28;20442;-55
2023/03/23 10:53:33;;;;;;;2.97;1.43;;;13.40;99.90;;;;;;5056636;28;20469;-56
2023/03/23 10:56:00;;;;;;;3.23;1.53;;;13.40;99.90;;;;;;5056616;28;20556;-56
2023/03/23 10:58:30;;;;;;;1.80;1.37;;;13.40;99.90;;;;;;5056238;28;20989;-56
2023/03/23 11:00:57;;;;;;;1.77;1.60;;;13.50;99.90;;;;;;5056533;28;20449;-56
2023/03/23 11:03:29;;;;;;;1.70;1.60;;;13.60;99.90;;;;;;5056482;28;20473;-56
2023/03/23 11:05:59;;;;;;;1.37;1.07;;;13.60;99.90;;;;;;5056102;28;20903;-56
2023/03/23 11:08:29;;;;;;;2.43;1.47;;;13.50;99.90;;;;;;5056370;28;20943;-56
2023/03/23 11:10:57;;;;;;;2.50;1.47;;;13.30;99.90;;;;;;5056288;28;20445;-55
2023/03/23 11:13:31;;;;;;;1.70;1.27;;;13.30;99.90;;;;;;5056210;28;20470;-59
2023/03/23 11:15:58;;;;;;;1.27;1.20;;;13.30;99.90;;;;;;5056251;28;20473;-56
2023/03/23 11:18:27;;;;;;;1.67;1.43;;;13.30;99.90;;;;;;5056215;28;20453;-56
2023/03/23 11:20:58;;;;;;;1.30;1.20;;;13.30;99.90;;;;;;5054947;28;20453;-56
2023/03/23 11:23:28;;;;;;;1.57;1.10;;;13.40;99.90;;;;;;5055553;28;20476;-56
2023/03/23 11:26:09;;;;;;;2.30;1.33;;;13.40;99.90;;;;;;5055975;28;20445;-56
2023/03/23 11:28:44;;;;;;;1.93;0.90;;;13.40;99.90;;;;;;5056482;28;20434;-55
2023/03/23 11:31:11;;;;;;;1.13;0.70;;;13.40;99.90;;;;;;5055646;28;20775;-56
2023/03/23 11:33:48;;;;;;;2.00;0.90;;;13.50;99.90;;;;;;5055698;28;20473;-56
2023/03/23 11:36:15;;;;;;;2.03;1.30;;;13.60;99.90;;;;;;5055682;28;20524;-55
2023/03/23 11:38:43;;;;;;;2.70;1.83;;;13.70;99.90;;;;;;5055439;28;20560;-55
2023/03/23 11:41:12;;;;;;;2.80;1.40;;;13.80;99.90;;;;;;5055698;28;20461;-55
2023/03/23 11:43:46;;;;;;;1.20;1.10;;;13.90;99.90;;;;;;5055549;28;20473;-55
2023/03/23 11:46:20;;;;;;;3.50;1.10;;;14.00;99.90;;;;;;5055655;28;20434;-55
2023/03/23 11:48:54;;;;;;;1.73;1.23;;;14.00;99.90;;;;;;5055547;28;20429;-56
2023/03/23 11:51:27;;;;;;;3.13;1.50;;;14.00;99.90;;;;;;5055604;28;20469;-56
2023/03/23 11:54:00;;;;;;;1.90;1.17;;;14.20;99.90;;;;;;5054784;28;20530;-56
2023/03/23 11:56:30;;;;;;;3.43;1.47;;;14.50;99.90;;;;;;5055294;28;20472;-57
2023/03/23 11:58:59;;;;;;;3.73;2.37;;;15.10;99.90;;;;;;5055375;28;20430;-57
2023/03/23 12:01:48;;;;;;;4.00;1.90;;;15.40;99.90;;;;;;5055308;28;20499;-57
2023/03/23 12:04:32;;;;;;;2.20;1.50;;;15.90;99.90;;;;;;5054848;28;20473;-57
2023/03/23 12:07:12;;;;;;;3.20;1.60;;;16.30;99.50;;;;;;5054861;28;20790;-57
2023/03/23 12:09:48;;;;;;;1.83;1.27;;;16.80;99.10;;;;;;5055234;28;20433;-57
2023/03/23 12:12:20;;;;;;;2.40;1.50;;;17.10;97.10;;;;;;5055066;28;20469;-57
2023/03/23 12:15:01;;;;;;;1.70;1.40;;;17.30;97.00;;;;;;5055065;28;20463;-57
2023/03/23 12:17:40;;;;;;;1.57;1.43;;;17.20;96.80;;;;;;5054896;28;20919;-57
2023/03/23 12:20:19;;;;;;;1.97;1.70;;;16.80;96.80;;;;;;5054767;28;20915;-57
2023/03/23 12:23:06;;;;;;;3.13;1.73;;;16.40;97.70;;;;;;5054932;28;20476;-57
2023/03/23 12:25:50;;;;;;;2.40;2.00;;;16.00;98.60;;;;;;5054635;28;20947;-57
2023/03/23 12:28:28;;;;;;;5.70;2.77;;;15.60;99.80;;;;;;5054890;28;20426;-57
2023/03/23 12:31:03;;;;;;;8.00;2.37;;;15.30;99.90;;;;;;5054729;28;20437;-56
2023/03/23 12:33:51;;;;;;;2.33;2.10;;;15.10;99.90;;;;;;5054786;28;20464;-57
2023/03/23 12:36:28;;;;;;;3.10;2.20;;;15.40;99.90;;;;;;5054659;28;20485;-57
2023/03/23 12:39:27;;;;;;;2.30;1.90;;;16.00;99.90;;;;;;5054794;28;20461;-57
2023/03/23 12:42:01;;;;;;;3.73;2.40;;;16.80;99.60;;;;;;5054661;28;20449;-57
2023/03/23 12:44:35;;;;;;;3.10;2.50;;;17.20;98.30;;;;;;5054183;28;21002;-57
2023/03/23 12:47:14;;;;;;;2.97;2.20;;;17.30;97.50;;;;;;5054526;28;20845;-57
2023/03/23 12:49:45;;;;;;;2.40;2.20;;;17.10;98.50;;;;;;5054555;28;20488;-57
2023/03/23 12:52:19;;;;;;;4.43;2.83;;;16.90;98.00;;;;;;5054352;28;20426;-57
2023/03/23 12:54:53;;;;;;;2.50;2.30;;;16.70;98.60;;;;;;5054423;28;20444;-57
2023/03/23 12:57:30;;;;;;;3.13;2.87;;;16.50;99.10;;;;;;5054005;28;20970;-57
2023/03/23 13:00:05;;;;;;;4.07;3.77;;;16.30;99.60;;;;;;5054171;28;20529;-57